createdAt,value
2023-03-20T00:00:21.364Z,101174.31
2023-03-20T00:02:50.907Z,101182.16
2023-03-20T00:05:24.584Z,101181.34
2023-03-20T00:07:54.166Z,101172.75
2023-03-20T00:10:24.034Z,101185.69
2023-03-20T00:12:57.411Z,101185.63
2023-03-20T00:15:31.022Z,101185.19
2023-03-20T00:18:01.878Z,101184.78
2023-03-20T00:20:31.741Z,101187.41
2023-03-20T00:23:01.102Z,101191.97
2023-03-20T00:25:30.678Z,101172.44
2023-03-20T00:28:03.129Z,101178.16
2023-03-20T00:30:33.983Z,101181.09
2023-03-20T00:33:03.317Z,101183.97
2023-03-20T00:35:34.487Z,101177.09
2023-03-20T00:38:03.996Z,101172.34
2023-03-20T00:40:34.461Z,101168.44
2023-03-20T00:43:07.566Z,101169.00
2023-03-20T00:45:38.361Z,101177.28
2023-03-20T00:48:08.679Z,101174.78
2023-03-20T00:50:38.095Z,101168.66
2023-03-20T00:53:07.398Z,101168.50
2023-03-20T00:55:37.559Z,101166.56
2023-03-20T00:58:09.942Z,101175.59
2023-03-20T01:00:42.593Z,101164.34
2023-03-20T01:03:18.627Z,101171.25
2023-03-20T01:05:48.981Z,101172.81
2023-03-20T01:08:20.871Z,101171.72
2023-03-20T01:10:53.416Z,101166.78
2023-03-20T01:13:27.373Z,101174.03
2023-03-20T01:15:58.061Z,101163.50
2023-03-20T01:18:29.262Z,101165.72
2023-03-20T01:20:58.605Z,101163.41
2023-03-20T01:23:27.904Z,101169.22
2023-03-20T01:25:57.384Z,101171.50
2023-03-20T01:28:30.751Z,101159.91
2023-03-20T01:31:00.191Z,101172.66
2023-03-20T01:33:30.913Z,101162.19
2023-03-20T01:36:00.253Z,101169.06
2023-03-20T01:38:30.412Z,101168.72
2023-03-20T01:41:02.215Z,101168.25
2023-03-20T01:43:35.885Z,101176.47
2023-03-20T01:46:17.517Z,101178.47
2023-03-20T01:49:12.170Z,101178.78
2023-03-20T01:51:41.406Z,101188.34
2023-03-20T01:54:13.764Z,101181.03
2023-03-20T01:56:48.507Z,101175.72
2023-03-20T01:59:23.381Z,101179.50
2023-03-20T02:01:53.150Z,101181.69
2023-03-20T02:04:28.717Z,101174.44
2023-03-20T02:06:58.248Z,101179.22
2023-03-20T02:09:27.510Z,101179.22
2023-03-20T02:11:57.185Z,101172.03
2023-03-20T02:14:29.583Z,101175.03
2023-03-20T02:16:59.099Z,101179.81
2023-03-20T02:19:34.438Z,101176.09
2023-03-20T02:22:30.065Z,101186.88
2023-03-20T02:25:34.957Z,101178.66
2023-03-20T02:28:23.306Z,101174.28
2023-03-20T02:31:37.153Z,101173.09
2023-03-20T02:34:34.735Z,101168.25
2023-03-20T02:37:39.579Z,101171.44
2023-03-20T02:40:20.582Z,101158.53
2023-03-20T02:42:56.523Z,101163.09
2023-03-20T02:45:30.638Z,101158.31
2023-03-20T02:48:12.838Z,101159.59
2023-03-20T02:50:50.358Z,101159.47
2023-03-20T02:53:30.946Z,101168.56
2023-03-20T02:56:11.613Z,101159.44
2023-03-20T02:58:47.412Z,101160.28
2023-03-20T03:01:20.780Z,101159.06
2023-03-20T03:03:54.961Z,101159.47
2023-03-20T03:06:29.684Z,101167.59
2023-03-20T03:09:04.991Z,101172.34
2023-03-20T03:11:40.844Z,101168.03
2023-03-20T03:14:13.001Z,101162.09
2023-03-20T03:16:43.913Z,101164.81
2023-03-20T03:19:18.227Z,101155.63
2023-03-20T03:21:49.982Z,101162.22
2023-03-20T03:24:40.363Z,101157.13
2023-03-20T03:27:18.260Z,101158.41
2023-03-20T03:29:52.478Z,101158.50
2023-03-20T03:32:25.072Z,101172.22
2023-03-20T03:34:54.913Z,101165.56
2023-03-20T03:37:33.463Z,101170.38
2023-03-20T03:40:11.903Z,101167.13
2023-03-20T03:42:50.978Z,101167.56
2023-03-20T03:45:26.759Z,101159.59
2023-03-20T03:47:59.511Z,101154.50
2023-03-20T03:50:33.765Z,101151.25
2023-03-20T03:53:08.936Z,101151.97
2023-03-20T03:55:42.079Z,101145.13
2023-03-20T03:58:18.856Z,101146.13
2023-03-20T04:00:52.029Z,101149.03
2023-03-20T04:03:24.155Z,101140.31
2023-03-20T04:05:57.086Z,101152.63
2023-03-20T04:08:26.360Z,101138.50
2023-03-20T04:10:55.654Z,101143.75
2023-03-20T04:13:27.551Z,101139.16
2023-03-20T04:15:57.369Z,101134.41
2023-03-20T04:18:26.748Z,101136.38
2023-03-20T04:20:58.882Z,101138.16
2023-03-20T04:23:28.173Z,101140.13
2023-03-20T04:25:57.437Z,101141.66
2023-03-20T04:28:29.244Z,101136.84
2023-03-20T04:31:02.746Z,101139.44
2023-03-20T04:33:32.415Z,101148.53
2023-03-20T04:36:01.835Z,101137.75
2023-03-20T04:38:31.366Z,101139.75
2023-03-20T04:41:00.583Z,101130.16
2023-03-20T04:43:32.583Z,101136.72
2023-03-20T04:46:02.746Z,101140.34
2023-03-20T04:48:32.074Z,101138.03
2023-03-20T04:51:01.321Z,101146.91
2023-03-20T04:53:33.403Z,101140.97
2023-03-20T04:58:40.902Z,101151.38
2023-03-20T05:01:12.834Z,101142.16
2023-03-20T05:03:42.647Z,101151.00
2023-03-20T05:06:12.816Z,101140.38
2023-03-20T05:08:42.324Z,101142.47
2023-03-20T05:11:11.696Z,101137.09
2023-03-20T05:13:43.677Z,101146.34
2023-03-20T05:16:13.040Z,101148.78
2023-03-20T05:18:42.454Z,101145.50
2023-03-20T05:21:11.924Z,101147.88
2023-03-20T05:23:41.368Z,101136.44
2023-03-20T05:26:10.927Z,101131.16
2023-03-20T05:28:43.088Z,101133.63
2023-03-20T05:31:12.496Z,101143.31
2023-03-20T05:33:41.943Z,101146.00
2023-03-20T05:36:12.503Z,101145.78
2023-03-20T05:38:42.032Z,101155.97
2023-03-20T05:41:11.376Z,101150.56
2023-03-20T05:43:44.547Z,101150.44
2023-03-20T05:46:13.831Z,101157.41
2023-03-20T05:48:43.142Z,101152.81
2023-03-20T05:51:12.538Z,101158.41
2023-03-20T05:53:41.825Z,101158.78
2023-03-20T05:56:12.042Z,101158.28
2023-03-20T05:58:49.806Z,101157.00
2023-03-20T06:01:21.526Z,101155.50
2023-03-20T06:03:51.017Z,101163.78
2023-03-20T06:06:20.852Z,101161.44
2023-03-20T06:08:50.288Z,101162.50
2023-03-20T06:11:19.562Z,101164.38
2023-03-20T06:13:54.544Z,101164.63
2023-03-20T06:16:23.894Z,101170.13
2023-03-20T06:18:53.333Z,101166.13
2023-03-20T06:21:22.549Z,101155.72
2023-03-20T06:23:51.896Z,101163.44
2023-03-20T06:26:21.105Z,101161.81
2023-03-20T06:28:53.010Z,101171.97
2023-03-20T06:31:22.256Z,101177.00
2023-03-20T06:33:52.663Z,101181.22
2023-03-20T06:36:22.167Z,101184.84
2023-03-20T06:38:51.762Z,101186.59
2023-03-20T06:41:33.720Z,101175.97
2023-03-20T06:44:06.023Z,101181.63
2023-03-20T06:46:35.308Z,101194.31
2023-03-20T06:49:04.730Z,101191.97
2023-03-20T06:51:33.955Z,101193.59
2023-03-20T06:54:03.190Z,101198.19
2023-03-20T06:56:32.531Z,101200.13
2023-03-20T06:59:01.858Z,101199.13
2023-03-20T07:01:33.742Z,101196.44
2023-03-20T07:04:03.362Z,101197.44
2023-03-20T07:06:33.607Z,101197.94
2023-03-20T07:09:03.283Z,101196.31
2023-03-20T07:11:32.674Z,101205.09
2023-03-20T07:14:03.296Z,101207.31
2023-03-20T07:16:35.749Z,101204.50
2023-03-20T07:19:05.560Z,101204.94
2023-03-20T07:21:34.882Z,101208.94
2023-03-20T07:24:04.342Z,101211.63
2023-03-20T07:26:33.609Z,101210.25
2023-03-20T07:29:03.185Z,101214.78
2023-03-20T07:31:35.314Z,101213.38
2023-03-20T07:34:04.555Z,101210.66
2023-03-20T07:36:33.791Z,101218.75
2023-03-20T07:39:03.013Z,101216.53
2023-03-20T07:41:32.230Z,101218.44
2023-03-20T07:44:03.731Z,101215.84
2023-03-20T07:46:35.691Z,101215.50
2023-03-20T07:49:05.799Z,101217.41
2023-03-20T07:51:35.691Z,101215.75
2023-03-20T07:54:05.034Z,101221.41
2023-03-20T07:56:34.629Z,101221.06
2023-03-20T07:59:03.893Z,101219.69
2023-03-20T08:01:36.024Z,101224.63
2023-03-20T08:04:05.388Z,101223.09
2023-03-20T08:06:34.851Z,101224.00
2023-03-20T08:09:04.286Z,101228.59
2023-03-20T08:11:34.845Z,101223.88
2023-03-20T08:14:04.169Z,101228.34
2023-03-20T08:16:36.292Z,101236.78
2023-03-20T08:19:06.281Z,101229.53
2023-03-20T08:21:36.166Z,101235.03
2023-03-20T08:24:06.129Z,101241.94
2023-03-20T08:26:35.625Z,101241.47
2023-03-20T08:29:04.931Z,101250.59
2023-03-20T08:31:36.727Z,101252.38
2023-03-20T08:34:06.018Z,101251.97
2023-03-20T08:36:35.244Z,101257.47
2023-03-20T08:39:05.928Z,101253.03
2023-03-20T08:41:35.253Z,101248.94
2023-03-20T08:44:04.492Z,101267.84
2023-03-20T08:46:34.482Z,101260.06
2023-03-20T08:49:06.467Z,101250.22
2023-03-20T08:51:35.856Z,101252.00
2023-03-20T08:54:05.073Z,101253.16
2023-03-20T08:56:34.734Z,101248.25
2023-03-20T08:59:04.464Z,101255.47
2023-03-20T09:01:48.276Z,101249.41
2023-03-20T09:04:21.611Z,101261.91
2023-03-20T09:06:51.894Z,101256.34
2023-03-20T09:09:26.957Z,101258.88
2023-03-20T09:11:56.763Z,101256.78
2023-03-20T09:14:26.631Z,101256.03
2023-03-20T09:16:56.362Z,101258.66
2023-03-20T09:19:29.668Z,101251.63
2023-03-20T09:21:59.860Z,101251.63
2023-03-20T09:24:29.689Z,101257.44
2023-03-20T09:26:58.948Z,101253.09
2023-03-20T09:29:28.206Z,101257.47
2023-03-20T09:31:57.479Z,101253.84
2023-03-20T09:34:29.484Z,101269.94
2023-03-20T09:36:58.891Z,101262.75
2023-03-20T09:39:28.114Z,101257.34
2023-03-20T09:41:57.964Z,101254.66
2023-03-20T09:44:47.276Z,101257.59
2023-03-20T09:47:24.616Z,101264.72
2023-03-20T09:50:14.079Z,101257.50
2023-03-20T09:52:48.755Z,101254.69
2023-03-20T09:55:21.892Z,101263.00
2023-03-20T09:57:55.129Z,101260.47
2023-03-20T10:00:28.305Z,101262.91
2023-03-20T10:03:02.774Z,101263.69
2023-03-20T10:05:40.526Z,101256.41
2023-03-20T10:08:16.864Z,101262.38
2023-03-20T10:10:53.223Z,101257.53
2023-03-20T10:13:44.950Z,101248.06
2023-03-20T10:16:23.416Z,101258.28
2023-03-20T10:19:00.888Z,101256.41
2023-03-20T10:21:39.755Z,101261.06
2023-03-20T10:24:19.533Z,101265.53
2023-03-20T10:26:54.056Z,101265.41
2023-03-20T10:29:32.748Z,101262.16
2023-03-20T10:32:10.469Z,101263.47
2023-03-20T10:34:55.968Z,101262.22
2023-03-20T10:37:50.963Z,101259.91
2023-03-20T10:40:27.716Z,101258.94
2023-03-20T10:43:00.542Z,101261.66
2023-03-20T10:45:39.034Z,101268.09
2023-03-20T10:48:17.328Z,101253.13
2023-03-20T10:50:49.986Z,101250.69
2023-03-20T10:53:30.903Z,101244.50
2023-03-20T10:56:04.622Z,101247.38
2023-03-20T10:58:38.079Z,101239.53
2023-03-20T11:01:08.126Z,101241.16
2023-03-20T11:03:39.862Z,101230.44
2023-03-20T11:06:17.428Z,101235.44
2023-03-20T11:08:52.147Z,101235.47
2023-03-20T11:11:28.091Z,101241.06
2023-03-20T11:13:58.698Z,101233.81
2023-03-20T11:16:33.113Z,101223.09
2023-03-20T11:19:09.403Z,101222.84
2023-03-20T11:21:48.005Z,101223.34
2023-03-20T11:24:36.886Z,101216.75
2023-03-20T11:27:11.312Z,101218.69
2023-03-20T11:29:45.606Z,101216.41
2023-03-20T11:32:24.982Z,101215.28
2023-03-20T11:34:57.403Z,101213.47
2023-03-20T11:37:29.274Z,101219.78
2023-03-20T11:40:03.511Z,101207.97
2023-03-20T11:42:34.115Z,101214.19
2023-03-20T11:45:04.890Z,101214.66
2023-03-20T11:47:36.897Z,101211.16
2023-03-20T11:50:08.630Z,101209.63
2023-03-20T11:52:41.850Z,101210.78
2023-03-20T11:55:27.744Z,101202.47
2023-03-20T11:58:00.531Z,101188.72
2023-03-20T12:00:38.032Z,101199.13
2023-03-20T12:03:43.651Z,101194.19
2023-03-20T12:06:18.339Z,101184.59
2023-03-20T12:08:54.506Z,101180.97
2023-03-20T12:11:41.339Z,101176.53
2023-03-20T12:14:19.329Z,101187.66
2023-03-20T12:16:51.802Z,101184.50
2023-03-20T12:19:26.420Z,101190.00
2023-03-20T12:22:01.503Z,101176.22
2023-03-20T12:24:36.698Z,101184.59
2023-03-20T12:27:19.822Z,101189.75
2023-03-20T12:29:52.833Z,101184.72
2023-03-20T12:32:28.236Z,101185.53
2023-03-20T12:35:00.817Z,101190.81
2023-03-20T12:37:30.050Z,101187.66
2023-03-20T12:40:02.421Z,101181.09
2023-03-20T12:42:45.914Z,101184.84
2023-03-20T12:45:18.761Z,101179.72
2023-03-20T12:48:03.608Z,101179.25
2023-03-20T12:50:35.787Z,101184.38
2023-03-20T12:53:34.948Z,101184.25
2023-03-20T12:56:17.479Z,101191.50
2023-03-20T12:58:53.780Z,101186.50
2023-03-20T13:01:25.022Z,101183.34
2023-03-20T13:04:23.567Z,101171.41
2023-03-20T13:06:56.104Z,101176.06
2023-03-20T13:09:44.939Z,101165.41
2023-03-20T13:12:26.236Z,101169.50
2023-03-20T13:15:08.328Z,101166.72
2023-03-20T13:17:47.125Z,101164.97
2023-03-20T13:20:30.547Z,101169.41
2023-03-20T13:23:11.539Z,101169.88
2023-03-20T13:25:56.620Z,101160.38
2023-03-20T13:31:36.924Z,101158.53
2023-03-20T13:34:21.450Z,101153.59
2023-03-20T13:37:16.142Z,101148.81
2023-03-20T13:40:04.066Z,101145.28
2023-03-20T13:42:39.548Z,101145.63
2023-03-20T13:45:22.599Z,101145.84
2023-03-20T13:47:55.985Z,101140.00
2023-03-20T13:50:41.794Z,101138.16
2023-03-20T13:53:21.797Z,101143.97
2023-03-20T13:55:56.688Z,101135.78
2023-03-20T13:58:44.235Z,101134.84
2023-03-20T14:01:22.375Z,101129.50
2023-03-20T14:03:55.978Z,101126.47
2023-03-20T14:06:47.880Z,101127.53
2023-03-20T14:09:29.463Z,101129.84
2023-03-20T14:12:03.630Z,101128.91
2023-03-20T14:14:34.334Z,101129.47
2023-03-20T14:17:15.589Z,101117.69
2023-03-20T14:19:48.612Z,101118.47
2023-03-20T14:22:20.911Z,101121.50
2023-03-20T14:24:57.548Z,101121.72
2023-03-20T14:27:43.388Z,101111.75
2023-03-20T14:30:42.242Z,101123.16
2023-03-20T14:33:28.222Z,101124.47
2023-03-20T14:36:22.421Z,101122.22
2023-03-20T14:39:13.207Z,101116.97
2023-03-20T14:41:59.604Z,101113.69
2023-03-20T14:44:38.628Z,101112.50
2023-03-20T14:47:14.878Z,101113.19
2023-03-20T14:49:56.062Z,101114.00
2023-03-20T14:52:57.052Z,101110.91
2023-03-20T14:55:37.386Z,101113.31
2023-03-20T14:58:09.060Z,101122.13
2023-03-20T15:00:48.133Z,101120.94
2023-03-20T15:03:19.519Z,101118.16
2023-03-20T15:05:50.223Z,101115.13
2023-03-20T15:08:26.638Z,101116.72
2023-03-20T15:10:58.099Z,101113.69
2023-03-20T15:13:29.004Z,101115.19
2023-03-20T15:16:04.018Z,101110.50
2023-03-20T15:18:39.246Z,101115.09
2023-03-20T15:21:15.646Z,101115.13
2023-03-20T15:23:49.541Z,101114.00
2023-03-20T15:26:25.241Z,101115.19
2023-03-20T15:29:03.300Z,101109.16
2023-03-20T15:31:35.077Z,101107.44
2023-03-20T15:34:07.206Z,101105.78
2023-03-20T15:36:39.591Z,101113.34
2023-03-20T15:39:17.392Z,101111.34
2023-03-20T15:41:54.351Z,101117.69
2023-03-20T15:44:25.645Z,101113.06
2023-03-20T15:46:58.914Z,101116.13
2023-03-20T15:49:29.273Z,101112.44
2023-03-20T15:52:02.087Z,101118.53
2023-03-20T15:54:34.523Z,101115.94
2023-03-20T15:57:05.529Z,101120.34
2023-03-20T15:59:37.803Z,101119.06
2023-03-20T16:02:07.366Z,101115.53
2023-03-20T16:04:36.958Z,101118.34
2023-03-20T16:07:06.345Z,101113.63
2023-03-20T16:09:45.751Z,101115.56
2023-03-20T16:12:19.886Z,101111.06
2023-03-20T16:14:51.099Z,101112.31
2023-03-20T16:17:22.615Z,101114.44
2023-03-20T16:19:52.106Z,101119.09
2023-03-20T16:22:26.586Z,101115.53
2023-03-20T16:25:02.587Z,101114.13
2023-03-20T16:27:35.446Z,101113.50
2023-03-20T16:30:08.578Z,101106.50
2023-03-20T16:32:43.550Z,101106.09
2023-03-20T16:35:19.493Z,101102.28
2023-03-20T16:37:51.905Z,101098.78
2023-03-20T16:40:33.790Z,101096.78
2023-03-20T16:43:09.727Z,101095.06
2023-03-20T16:45:39.647Z,101088.47
2023-03-20T16:48:27.568Z,101091.09
2023-03-20T16:51:04.141Z,101086.59
2023-03-20T16:53:40.426Z,101093.13
2023-03-20T16:56:19.090Z,101076.28
2023-03-20T16:58:48.769Z,101075.78
2023-03-20T17:01:21.339Z,101074.13
2023-03-20T17:03:53.948Z,101081.28
2023-03-20T17:06:40.090Z,101082.06
2023-03-20T17:09:24.145Z,101088.75
2023-03-20T17:12:04.977Z,101093.09
2023-03-20T17:14:34.966Z,101091.59
2023-03-20T17:17:04.425Z,101089.97
2023-03-20T17:19:35.658Z,101100.03
2023-03-20T17:22:14.432Z,101111.16
2023-03-20T17:24:43.859Z,101112.03
2023-03-20T17:27:16.901Z,101110.91
2023-03-20T17:29:47.541Z,101116.53
2023-03-20T17:32:19.424Z,101111.38
2023-03-20T17:34:48.933Z,101107.94
2023-03-20T17:37:24.102Z,101111.44
2023-03-20T17:39:54.524Z,101121.41
2023-03-20T17:42:31.362Z,101124.94
2023-03-20T17:45:01.852Z,101134.06
2023-03-20T17:47:31.906Z,101127.19
2023-03-20T17:50:01.771Z,101137.94
2023-03-20T17:52:31.675Z,101143.88
2023-03-20T17:55:00.948Z,101140.63
2023-03-20T17:57:35.921Z,101137.84
2023-03-20T18:00:08.716Z,101139.47
2023-03-20T18:02:38.253Z,101133.13
2023-03-20T18:05:09.054Z,101135.81
2023-03-20T18:07:38.298Z,101139.81
2023-03-20T18:10:09.189Z,101142.59
2023-03-20T18:12:40.978Z,101144.13
2023-03-20T18:15:12.080Z,101139.59
2023-03-20T18:17:41.324Z,101140.63
2023-03-20T18:20:24.468Z,101146.47
2023-03-20T18:22:53.928Z,101151.63
2023-03-20T18:25:25.854Z,101142.59
2023-03-20T18:27:59.118Z,101148.69
2023-03-20T18:30:30.055Z,101136.66
2023-03-20T18:32:59.555Z,101155.09
2023-03-20T18:35:29.010Z,101146.47
2023-03-20T18:37:58.502Z,101148.81
2023-03-20T18:40:30.235Z,101143.44
2023-03-20T18:43:03.025Z,101145.06
2023-03-20T18:45:33.388Z,101145.34
2023-03-20T18:48:03.869Z,101141.94
2023-03-20T18:50:37.586Z,101143.00
2023-03-20T18:53:08.512Z,101152.22
2023-03-20T18:55:39.017Z,101149.06
2023-03-20T18:58:22.435Z,101146.13
2023-03-20T19:00:54.008Z,101141.94
2023-03-20T19:03:25.819Z,101148.03
2023-03-20T19:05:57.577Z,101148.59
2023-03-20T19:08:27.068Z,101148.00
2023-03-20T19:10:56.619Z,101142.03
2023-03-20T19:13:28.629Z,101144.28
2023-03-20T19:15:57.989Z,101142.88
2023-03-20T19:18:29.547Z,101145.06
2023-03-20T19:21:00.503Z,101144.03
2023-03-20T19:23:31.662Z,101148.00
2023-03-20T19:26:01.120Z,101141.88
2023-03-20T19:28:39.285Z,101141.69
2023-03-20T19:31:11.739Z,101140.97
2023-03-20T19:33:41.859Z,101134.53
2023-03-20T19:36:24.236Z,101136.88
2023-03-20T19:38:54.017Z,101140.88
2023-03-20T19:41:23.255Z,101132.44
2023-03-20T19:43:55.713Z,101135.59
2023-03-20T19:46:42.444Z,101135.97
2023-03-20T19:49:20.715Z,101142.63
2023-03-20T19:51:50.648Z,101133.25
2023-03-20T19:54:20.070Z,101136.19
2023-03-20T19:56:49.273Z,101141.78
2023-03-20T19:59:21.268Z,101144.72
2023-03-20T20:01:51.031Z,101136.50
2023-03-20T20:04:20.411Z,101139.47
2023-03-20T20:06:49.677Z,101138.53
2023-03-20T20:09:19.043Z,101135.47
2023-03-20T20:11:48.272Z,101138.72
2023-03-20T20:14:17.484Z,101142.03
2023-03-20T20:16:52.543Z,101132.84
2023-03-20T20:19:21.949Z,101135.78
2023-03-20T20:22:19.518Z,101129.22
2023-03-20T20:24:41.346Z,101134.38
2023-03-20T20:27:19.321Z,101121.03
2023-03-20T20:29:50.500Z,101130.16
2023-03-20T20:32:24.830Z,101131.66
2023-03-20T20:38:30.498Z,101131.66
2023-03-20T20:40:34.092Z,101134.94
2023-03-20T20:43:10.132Z,101134.75
2023-03-20T20:45:40.229Z,101138.81
2023-03-20T20:48:12.535Z,101142.56
2023-03-20T20:50:46.575Z,101144.28
2023-03-20T20:53:15.940Z,101144.41
2023-03-20T20:55:45.188Z,101142.44
2023-03-20T20:58:14.402Z,101136.94
2023-03-20T21:00:51.151Z,101144.56
2023-03-20T21:03:26.439Z,101143.94
2023-03-20T21:05:55.896Z,101142.00
2023-03-20T21:08:25.156Z,101154.28
2023-03-20T21:10:54.388Z,101156.78
2023-03-20T21:13:23.629Z,101164.34
2023-03-20T21:16:00.168Z,101170.38
2023-03-20T21:18:32.015Z,101163.91
2023-03-20T21:21:06.828Z,101163.34
2023-03-20T21:23:36.469Z,101164.94
2023-03-20T21:26:07.346Z,101164.88
2023-03-20T21:28:37.224Z,101168.22
2023-03-20T21:31:23.922Z,101169.38
2023-03-20T21:33:57.710Z,101163.53
2023-03-20T21:36:27.915Z,101162.78
2023-03-20T21:39:07.800Z,101166.19
2023-03-20T21:41:38.151Z,101165.47
2023-03-20T21:44:14.923Z,101159.94
2023-03-20T21:47:22.660Z,101167.44
2023-03-20T21:53:10.309Z,101160.53
2023-03-20T21:56:16.974Z,101156.97
2023-03-20T21:58:51.768Z,101155.53
2023-03-20T22:04:54.916Z,101154.16
2023-03-20T22:16:10.976Z,101154.91
2023-03-20T22:18:50.917Z,101163.19
2023-03-20T22:21:41.589Z,101151.03
2023-03-20T22:27:32.549Z,101167.81
2023-03-20T22:30:07.162Z,101159.09
2023-03-20T22:32:56.399Z,101157.50
2023-03-20T22:36:06.882Z,101157.28
2023-03-20T22:38:52.336Z,101160.38
2023-03-20T22:46:49.985Z,101151.69
2023-03-20T22:49:19.368Z,101156.59
2023-03-20T22:52:07.665Z,101148.44
2023-03-20T22:54:38.450Z,101153.53
2023-03-20T22:57:10.489Z,101150.63
2023-03-20T22:59:40.135Z,101158.78
2023-03-20T23:02:09.563Z,101154.13
2023-03-20T23:04:38.917Z,101149.50
2023-03-20T23:07:08.292Z,101158.91
2023-03-20T23:09:37.693Z,101149.34
2023-03-20T23:12:10.925Z,101152.44
2023-03-20T23:14:45.742Z,101147.13
2023-03-20T23:17:15.762Z,101152.38
2023-03-20T23:19:49.021Z,101146.13
2023-03-20T23:22:21.785Z,101149.25
2023-03-20T23:24:52.130Z,101145.84
2023-03-20T23:27:25.842Z,101141.34
2023-03-20T23:29:55.536Z,101133.78
2023-03-20T23:32:24.892Z,101145.00
2023-03-20T23:34:54.216Z,101140.16
2023-03-20T23:37:23.515Z,101141.34
2023-03-20T23:39:52.831Z,101136.41
2023-03-20T23:42:30.691Z,101136.59
2023-03-20T23:45:13.183Z,101132.09
2023-03-20T23:47:48.235Z,101127.72
2023-03-20T23:50:28.674Z,101133.53
2023-03-20T23:53:13.588Z,101126.72
2023-03-20T23:55:48.004Z,101123.47
2023-03-20T23:58:20.236Z,101119.13
